createdAt,value
2022-12-12T00:22:44.588Z,1.00
2022-12-12T00:26:53.788Z,0.80
2022-12-12T00:31:03.218Z,0.70
2022-12-12T00:35:13.347Z,0.80
2022-12-12T00:39:24.568Z,0.80
2022-12-12T00:43:35.390Z,0.80
2022-12-12T00:47:44.671Z,0.70
2022-12-12T00:51:54.970Z,0.70
2022-12-12T00:56:06.350Z,0.70
2022-12-12T01:00:16.949Z,0.70
2022-12-12T01:04:26.488Z,0.70
2022-12-12T01:08:35.851Z,0.80
2022-12-12T01:12:46.620Z,0.70
2022-12-12T01:16:55.892Z,0.60
2022-12-12T01:21:05.585Z,0.60
2022-12-12T01:25:15.526Z,0.60
2022-12-12T01:29:26.409Z,0.60
2022-12-12T01:33:36.094Z,0.40
2022-12-12T01:37:45.469Z,0.40
2022-12-12T01:41:54.770Z,0.40
2022-12-12T01:46:37.078Z,0.50
2022-12-12T01:50:48.569Z,0.50
2022-12-12T01:55:00.155Z,0.40
2022-12-12T01:59:11.319Z,0.40
2022-12-12T02:03:20.895Z,0.40
2022-12-12T02:07:31.671Z,0.50
2022-12-12T02:11:45.949Z,0.50
2022-12-12T02:16:08.080Z,0.50
2022-12-12T02:20:44.670Z,0.50
2022-12-12T02:25:23.354Z,0.40
2022-12-12T02:30:05.672Z,0.50
2022-12-12T02:34:20.251Z,0.40
2022-12-12T02:38:32.607Z,0.40
2022-12-12T02:42:46.609Z,0.40
2022-12-12T02:47:04.370Z,0.40
2022-12-12T02:51:17.566Z,0.40
2022-12-12T02:55:26.852Z,0.40
2022-12-12T02:59:39.506Z,0.40
2022-12-12T03:04:15.251Z,0.30
2022-12-12T03:08:43.774Z,0.20
2022-12-12T03:13:01.042Z,0.20
2022-12-12T03:17:16.509Z,0.30
2022-12-12T03:21:33.238Z,0.30
2022-12-12T03:25:51.730Z,0.10
2022-12-12T03:30:06.596Z,0.10
2022-12-12T03:34:21.170Z,0.10
2022-12-12T03:38:34.650Z,0.10
2022-12-12T03:42:50.624Z,0.00
2022-12-12T03:47:07.673Z,0.00
2022-12-12T03:51:21.793Z,0.00
2022-12-12T03:55:38.970Z,0.00
2022-12-12T03:59:54.309Z,0.00
2022-12-12T04:04:10.111Z,0.00
2022-12-12T04:08:20.266Z,0.00
2022-12-12T04:12:55.629Z,0.00
2022-12-12T04:17:08.391Z,0.10
2022-12-12T04:21:50.331Z,0.10
2022-12-12T04:26:24.773Z,0.10
2022-12-12T04:30:37.451Z,0.10
2022-12-12T04:34:53.034Z,0.10
2022-12-12T04:39:03.747Z,0.20
2022-12-12T04:43:16.928Z,0.10
2022-12-12T04:47:27.788Z,0.10
2022-12-12T04:51:45.750Z,0.10
2022-12-12T04:55:58.911Z,0.10
2022-12-12T05:00:09.349Z,0.10
2022-12-12T05:04:25.010Z,0.10
2022-12-12T05:08:38.335Z,0.10
2022-12-12T05:12:49.329Z,0.10
2022-12-12T05:17:03.098Z,0.20
2022-12-12T05:21:12.290Z,0.30
2022-12-12T05:25:23.151Z,0.30
2022-12-12T05:29:32.328Z,0.40
2022-12-12T05:33:41.550Z,0.30
2022-12-12T05:37:52.154Z,0.30
2022-12-12T05:42:03.149Z,0.40
2022-12-12T05:46:12.418Z,0.30
2022-12-12T05:50:21.691Z,0.30
2022-12-12T05:54:30.852Z,0.30
2022-12-12T05:58:41.947Z,0.30
2022-12-12T06:02:51.208Z,0.30
2022-12-12T06:07:00.511Z,0.20
2022-12-12T06:11:10.027Z,0.10
2022-12-12T06:15:20.809Z,0.10
2022-12-12T06:19:29.971Z,0.20
2022-12-12T06:23:40.088Z,0.20
2022-12-12T06:27:49.369Z,0.20
2022-12-12T06:32:00.070Z,0.30
2022-12-12T06:36:12.008Z,0.30
2022-12-12T06:40:21.250Z,0.30
2022-12-12T06:44:30.386Z,0.50
2022-12-12T06:48:41.151Z,0.40
2022-12-12T06:52:50.386Z,0.30
2022-12-12T06:56:59.410Z,0.40
2022-12-12T07:01:09.638Z,0.50
2022-12-12T07:05:21.609Z,0.60
2022-12-12T07:09:33.366Z,0.60
2022-12-12T07:13:42.630Z,0.60
2022-12-12T07:17:54.827Z,0.60
2022-12-12T07:22:09.663Z,0.60
2022-12-12T07:26:22.236Z,0.70
2022-12-12T07:30:31.453Z,0.80
2022-12-12T07:34:40.732Z,0.80
2022-12-12T07:38:51.650Z,0.70
2022-12-12T07:43:01.347Z,0.60
2022-12-12T07:47:11.930Z,1.00
2022-12-12T07:51:21.426Z,0.80
2022-12-12T07:55:32.088Z,0.70
2022-12-12T07:59:41.547Z,0.60
2022-12-12T08:03:51.628Z,0.70
2022-12-12T08:08:03.838Z,0.80
2022-12-12T08:12:14.749Z,0.90
2022-12-12T08:16:25.954Z,0.80
2022-12-12T08:20:35.349Z,0.80
2022-12-12T08:24:44.470Z,0.80
2022-12-12T08:28:56.848Z,0.90
2022-12-12T08:33:08.216Z,1.00
2022-12-12T08:37:17.827Z,1.00
2022-12-12T08:41:27.369Z,1.10
2022-12-12T08:45:38.985Z,1.00
2022-12-12T08:49:48.170Z,1.10
2022-12-12T08:53:57.610Z,1.20
2022-12-12T08:58:06.970Z,1.00
2022-12-12T09:02:17.722Z,1.00
2022-12-12T09:06:27.932Z,1.10
2022-12-12T09:10:37.029Z,1.30
2022-12-12T09:14:46.270Z,1.40
2022-12-12T09:18:57.547Z,1.40
2022-12-12T09:23:07.269Z,1.40
2022-12-12T09:27:16.669Z,1.50
2022-12-12T09:31:26.023Z,1.60
2022-12-12T09:35:39.489Z,1.70
2022-12-12T09:39:49.014Z,1.80
2022-12-12T09:44:02.534Z,1.80
2022-12-12T09:48:18.254Z,1.90
2022-12-12T09:52:34.071Z,1.90
2022-12-12T09:56:57.175Z,2.10
2022-12-12T10:01:13.884Z,2.30
2022-12-12T10:05:32.549Z,2.40
2022-12-12T10:10:05.073Z,2.40
2022-12-12T10:14:15.869Z,2.60
2022-12-12T10:18:29.551Z,2.70
2022-12-12T10:22:51.391Z,2.80
2022-12-12T10:27:12.949Z,2.70
2022-12-12T10:31:37.087Z,2.60
2022-12-12T10:35:56.172Z,2.70
2022-12-12T10:40:20.011Z,2.80
2022-12-12T10:44:48.734Z,3.00
2022-12-12T10:48:59.510Z,3.00
2022-12-12T10:53:11.836Z,3.00
2022-12-12T10:57:24.928Z,3.00
2022-12-12T11:02:08.368Z,3.30
2022-12-12T11:06:14.771Z,3.60
2022-12-12T11:10:30.619Z,3.70
2022-12-12T11:14:48.493Z,3.80
2022-12-12T11:19:07.056Z,3.90
2022-12-12T11:23:21.595Z,3.90
2022-12-12T11:27:34.908Z,4.00
2022-12-12T11:31:48.411Z,4.10
2022-12-12T11:36:04.333Z,4.10
2022-12-12T11:40:28.954Z,4.10
2022-12-12T11:44:40.048Z,4.10
2022-12-12T11:49:14.770Z,4.10
2022-12-12T11:54:08.573Z,4.20
2022-12-12T12:07:31.128Z,4.10
2022-12-12T12:11:52.173Z,4.10
2022-12-12T12:16:37.412Z,4.20
2022-12-12T12:21:13.433Z,4.10
2022-12-12T12:25:35.347Z,4.10
2022-12-12T12:30:05.171Z,4.00
2022-12-12T12:34:23.490Z,4.10
2022-12-12T12:38:52.930Z,4.20
2022-12-12T12:43:37.312Z,4.10
2022-12-12T12:47:53.994Z,4.10
2022-12-12T12:52:08.193Z,4.20
2022-12-12T12:56:26.727Z,4.20
2022-12-12T13:00:38.650Z,4.10
2022-12-12T13:04:53.078Z,4.10
2022-12-12T13:09:07.853Z,4.10
2022-12-12T13:13:25.351Z,4.20
2022-12-12T13:17:48.411Z,4.30
2022-12-12T13:22:06.529Z,4.30
2022-12-12T13:26:23.835Z,4.10
2022-12-12T13:30:45.893Z,4.00
2022-12-12T13:35:02.374Z,3.90
2022-12-12T13:39:28.836Z,4.00
2022-12-12T13:43:50.687Z,4.00
2022-12-12T13:48:02.428Z,3.90
2022-12-12T13:52:30.660Z,3.80
2022-12-12T13:56:43.091Z,3.80
2022-12-12T14:01:31.329Z,3.90
2022-12-12T14:05:43.477Z,3.70
2022-12-12T14:09:58.360Z,3.70
2022-12-12T14:14:22.680Z,3.60
2022-12-12T14:18:36.365Z,3.60
2022-12-12T14:23:12.542Z,3.60
2022-12-12T14:28:16.275Z,3.70
2022-12-12T14:32:44.625Z,3.50
2022-12-12T14:37:31.346Z,3.50
2022-12-12T14:41:43.766Z,3.40
2022-12-12T14:46:00.367Z,3.40
2022-12-12T14:50:12.180Z,3.60
2022-12-12T14:54:24.968Z,3.60
2022-12-12T14:58:38.571Z,3.70
2022-12-12T15:02:53.608Z,3.50
2022-12-12T15:07:06.260Z,3.50
2022-12-12T15:11:16.735Z,3.50
2022-12-12T15:15:28.990Z,3.50
2022-12-12T15:19:43.222Z,3.50
2022-12-12T15:23:53.645Z,3.40
2022-12-12T15:28:04.618Z,3.30
2022-12-12T15:32:21.610Z,3.20
2022-12-12T15:36:33.922Z,3.20
2022-12-12T15:40:46.502Z,3.30
2022-12-12T15:44:59.467Z,3.40
2022-12-12T15:49:39.839Z,3.40
2022-12-12T15:53:54.374Z,3.20
2022-12-12T15:58:04.409Z,3.20
2022-12-12T16:02:30.121Z,3.10
2022-12-12T16:06:43.224Z,3.10
2022-12-12T16:10:57.831Z,3.10
2022-12-12T16:15:21.006Z,3.10
2022-12-12T16:19:39.728Z,3.10
2022-12-12T16:23:49.589Z,3.10
2022-12-12T16:28:03.325Z,3.00
2022-12-12T16:32:16.106Z,2.80
2022-12-12T16:36:25.427Z,2.70
2022-12-12T16:40:35.189Z,2.70
2022-12-12T16:44:46.350Z,2.70
2022-12-12T16:48:56.385Z,2.70
2022-12-12T16:53:05.850Z,2.60
2022-12-12T16:57:15.207Z,2.60
2022-12-12T17:01:26.192Z,2.60
2022-12-12T17:05:36.008Z,2.60
2022-12-12T17:09:45.930Z,2.70
2022-12-12T17:13:55.348Z,2.70
2022-12-12T17:18:08.286Z,2.60
2022-12-12T17:22:17.947Z,2.60
2022-12-12T17:26:29.026Z,2.50
2022-12-12T17:30:40.351Z,2.60
2022-12-12T17:35:00.767Z,2.60
2022-12-12T17:39:11.466Z,2.50
2022-12-12T17:43:26.566Z,2.40
2022-12-12T17:47:37.726Z,2.20
2022-12-12T17:51:49.313Z,2.20
2022-12-12T17:56:01.600Z,2.30
2022-12-12T18:00:18.731Z,2.30
2022-12-12T18:04:28.848Z,2.30
2022-12-12T18:08:41.127Z,2.10
2022-12-12T18:12:51.928Z,2.20
2022-12-12T18:17:02.829Z,2.20
2022-12-12T18:21:23.567Z,2.10
2022-12-12T18:25:47.166Z,2.10
2022-12-12T18:29:56.824Z,2.00
2022-12-12T18:34:06.886Z,2.10
2022-12-12T18:38:17.279Z,2.10
2022-12-12T18:42:29.246Z,2.00
2022-12-12T18:46:43.191Z,2.00
2022-12-12T18:50:53.005Z,1.90
2022-12-12T18:55:05.853Z,1.90
2022-12-12T18:59:20.089Z,2.00
2022-12-12T19:03:29.608Z,2.00
2022-12-12T19:07:40.327Z,1.90
2022-12-12T19:12:02.779Z,1.90
2022-12-12T19:20:56.426Z,1.90
2022-12-12T19:25:07.467Z,2.00
2022-12-12T19:29:21.223Z,2.00
2022-12-12T19:33:32.245Z,1.90
2022-12-12T19:37:41.665Z,1.90
2022-12-12T19:41:51.945Z,2.00
2022-12-12T19:46:06.779Z,1.90
2022-12-12T19:50:17.910Z,1.80
2022-12-12T19:54:27.449Z,1.90
2022-12-12T19:58:38.778Z,2.00
2022-12-12T20:03:47.591Z,2.00
2022-12-12T20:08:10.530Z,2.00
2022-12-12T20:17:18.644Z,1.80
2022-12-12T20:22:00.316Z,1.80
2022-12-12T20:36:46.007Z,1.60
2022-12-12T20:45:39.966Z,1.70
2022-12-12T20:49:52.406Z,1.80
2022-12-12T20:54:05.030Z,1.80
2022-12-12T21:02:55.862Z,1.90
2022-12-12T21:07:05.926Z,1.80
2022-12-12T21:11:28.247Z,1.90
2022-12-12T21:16:10.702Z,1.90
2022-12-12T21:20:23.285Z,1.80
2022-12-12T21:24:32.884Z,1.70
2022-12-12T21:28:42.407Z,1.60
2022-12-12T21:32:52.188Z,1.50
2022-12-12T21:37:04.267Z,1.50
2022-12-12T21:41:16.766Z,1.40
2022-12-12T21:45:29.786Z,1.40
2022-12-12T21:49:39.064Z,1.50
2022-12-12T21:53:49.845Z,1.50
2022-12-12T21:57:59.205Z,1.40
2022-12-12T22:02:08.966Z,1.30
2022-12-12T22:06:20.547Z,1.30
2022-12-12T22:16:37.558Z,1.40
